sensor_id;sensor_type;location;lat;lon;timestamp;P1;durP1;ratioP1;P2;durP2;ratioP2
3095;SDS011;1558;42.700;23.360;2023-01-01T00:01:44;319.27;;;270.27;;
3095;SDS011;1558;42.700;23.360;2023-01-01T00:04:13;314.57;;;265.13;;
3095;SDS011;1558;42.700;23.360;2023-01-01T00:06:42;317.90;;;279.73;;
3095;SDS011;1558;42.700;23.360;2023-01-01T00:09:11;338.30;;;280.00;;
3095;SDS011;1558;42.700;23.360;2023-01-01T00:11:58;356.83;;;291.67;;
3095;SDS011;1558;42.700;23.360;2023-01-01T00:14:26;342.30;;;289.97;;
3095;SDS011;1558;42.700;23.360;2023-01-01T00:16:54;331.33;;;277.07;;
3095;SDS011;1558;42.700;23.360;2023-01-01T00:19:25;333.07;;;275.13;;
3095;SDS011;1558;42.700;23.360;2023-01-01T00:21:52;335.27;;;275.90;;
3095;SDS011;1558;42.700;23.360;2023-01-01T00:24:22;334.23;;;281.60;;
3095;SDS011;1558;42.700;23.360;2023-01-01T00:26:49;359.03;;;295.70;;
3095;SDS011;1558;42.700;23.360;2023-01-01T00:29:19;343.90;;;277.50;;
3095;SDS011;1558;42.700;23.360;2023-01-01T00:31:46;344.73;;;274.80;;
3095;SDS011;1558;42.700;23.360;2023-01-01T00:34:16;402.93;;;327.67;;
3095;SDS011;1558;42.700;23.360;2023-01-01T00:36:44;447.47;;;346.10;;
3095;SDS011;1558;42.700;23.360;2023-01-01T00:39:12;421.93;;;331.70;;
3095;SDS011;1558;42.700;23.360;2023-01-01T00:41:39;459.67;;;364.83;;
3095;SDS011;1558;42.700;23.360;2023-01-01T00:44:07;431.40;;;340.87;;
3095;SDS011;1558;42.700;23.360;2023-01-01T00:46:37;398.93;;;312.33;;
3095;SDS011;1558;42.700;23.360;2023-01-01T00:49:05;405.40;;;317.27;;
3095;SDS011;1558;42.700;23.360;2023-01-01T00:51:33;387.60;;;310.73;;
3095;SDS011;1558;42.700;23.360;2023-01-01T00:54:02;406.17;;;327.33;;
3095;SDS011;1558;42.700;23.360;2023-01-01T00:56:30;420.73;;;328.30;;
3095;SDS011;1558;42.700;23.360;2023-01-01T00:58:59;399.23;;;322.27;;
3095;SDS011;1558;42.700;23.360;2023-01-01T01:01:27;393.33;;;309.60;;
3095;SDS011;1558;42.700;23.360;2023-01-01T01:03:56;383.43;;;306.07;;
3095;SDS011;1558;42.700;23.360;2023-01-01T01:06:24;404.97;;;314.40;;
3095;SDS011;1558;42.700;23.360;2023-01-01T01:08:52;404.83;;;325.17;;
3095;SDS011;1558;42.700;23.360;2023-01-01T01:11:21;388.10;;;312.60;;
3095;SDS011;1558;42.700;23.360;2023-01-01T01:13:52;414.50;;;325.13;;
3095;SDS011;1558;42.700;23.360;2023-01-01T01:16:22;408.27;;;325.50;;
3095;SDS011;1558;42.700;23.360;2023-01-01T01:18:53;396.20;;;315.77;;
3095;SDS011;1558;42.700;23.360;2023-01-01T01:21:24;385.47;;;309.27;;
3095;SDS011;1558;42.700;23.360;2023-01-01T01:23:55;392.07;;;312.23;;
3095;SDS011;1558;42.700;23.360;2023-01-01T01:26:26;397.87;;;319.47;;
3095;SDS011;1558;42.700;23.360;2023-01-01T01:28:55;406.87;;;315.00;;
3095;SDS011;1558;42.700;23.360;2023-01-01T01:31:25;394.60;;;320.37;;
3095;SDS011;1558;42.700;23.360;2023-01-01T01:33:55;407.37;;;319.80;;
3095;SDS011;1558;42.700;23.360;2023-01-01T01:36:25;380.43;;;301.37;;
3095;SDS011;1558;42.700;23.360;2023-01-01T01:38:53;355.33;;;287.80;;
3095;SDS011;1558;42.700;23.360;2023-01-01T01:41:22;373.90;;;301.10;;
3095;SDS011;1558;42.700;23.360;2023-01-01T01:43:56;371.10;;;304.77;;
3095;SDS011;1558;42.700;23.360;2023-01-01T01:46:27;371.57;;;301.00;;
3095;SDS011;1558;42.700;23.360;2023-01-01T01:48:59;379.40;;;301.20;;
3095;SDS011;1558;42.700;23.360;2023-01-01T01:51:34;374.37;;;306.23;;
3095;SDS011;1558;42.700;23.360;2023-01-01T01:54:07;398.10;;;320.50;;
3095;SDS011;1558;42.700;23.360;2023-01-01T01:56:41;394.03;;;312.40;;
3095;SDS011;1558;42.700;23.360;2023-01-01T01:59:13;383.30;;;312.37;;
3095;SDS011;1558;42.700;23.360;2023-01-01T02:01:42;433.70;;;333.43;;
3095;SDS011;1558;42.700;23.360;2023-01-01T02:04:24;415.83;;;324.00;;
3095;SDS011;1558;42.700;23.360;2023-01-01T02:06:53;416.37;;;330.97;;
3095;SDS011;1558;42.700;23.360;2023-01-01T02:09:22;409.90;;;318.20;;
3095;SDS011;1558;42.700;23.360;2023-01-01T02:11:50;404.57;;;318.70;;
3095;SDS011;1558;42.700;23.360;2023-01-01T02:14:18;403.27;;;317.97;;
3095;SDS011;1558;42.700;23.360;2023-01-01T02:16:46;395.47;;;301.97;;
3095;SDS011;1558;42.700;23.360;2023-01-01T02:19:19;332.87;;;267.00;;
3095;SDS011;1558;42.700;23.360;2023-01-01T02:22:05;366.93;;;292.83;;
3095;SDS011;1558;42.700;23.360;2023-01-01T02:24:44;387.83;;;301.97;;
3095;SDS011;1558;42.700;23.360;2023-01-01T02:27:24;345.30;;;269.10;;
3095;SDS011;1558;42.700;23.360;2023-01-01T02:30:03;365.70;;;287.23;;
3095;SDS011;1558;42.700;23.360;2023-01-01T02:32:34;371.17;;;292.97;;
3095;SDS011;1558;42.700;23.360;2023-01-01T02:35:08;372.23;;;293.33;;
3095;SDS011;1558;42.700;23.360;2023-01-01T02:37:59;362.33;;;285.80;;
3095;SDS011;1558;42.700;23.360;2023-01-01T02:40:31;362.67;;;285.53;;
3095;SDS011;1558;42.700;23.360;2023-01-01T02:43:02;345.17;;;278.30;;
3095;SDS011;1558;42.700;23.360;2023-01-01T02:45:33;365.20;;;283.37;;
3095;SDS011;1558;42.700;23.360;2023-01-01T02:48:02;340.00;;;274.13;;
3095;SDS011;1558;42.700;23.360;2023-01-01T02:50:32;352.13;;;276.60;;
3095;SDS011;1558;42.700;23.360;2023-01-01T02:53:08;359.53;;;291.27;;
3095;SDS011;1558;42.700;23.360;2023-01-01T02:55:48;349.50;;;277.67;;
3095;SDS011;1558;42.700;23.360;2023-01-01T02:58:26;329.93;;;275.87;;
3095;SDS011;1558;42.700;23.360;2023-01-01T03:01:21;340.63;;;275.60;;
3095;SDS011;1558;42.700;23.360;2023-01-01T03:04:00;334.07;;;272.47;;
3095;SDS011;1558;42.700;23.360;2023-01-01T03:06:36;336.83;;;272.10;;
3095;SDS011;1558;42.700;23.360;2023-01-01T03:09:11;342.53;;;271.17;;
3095;SDS011;1558;42.700;23.360;2023-01-01T03:11:50;310.73;;;246.50;;
3095;SDS011;1558;42.700;23.360;2023-01-01T03:14:24;337.03;;;274.80;;
3095;SDS011;1558;42.700;23.360;2023-01-01T03:17:01;346.63;;;277.23;;
3095;SDS011;1558;42.700;23.360;2023-01-01T03:19:32;339.33;;;275.13;;
3095;SDS011;1558;42.700;23.360;2023-01-01T03:22:04;343.50;;;270.00;;
3095;SDS011;1558;42.700;23.360;2023-01-01T03:24:37;341.47;;;267.67;;
3095;SDS011;1558;42.700;23.360;2023-01-01T03:27:10;340.37;;;270.63;;
3095;SDS011;1558;42.700;23.360;2023-01-01T03:29:41;305.77;;;241.87;;
3095;SDS011;1558;42.700;23.360;2023-01-01T03:32:12;293.23;;;240.63;;
3095;SDS011;1558;42.700;23.360;2023-01-01T03:34:48;271.77;;;208.53;;
3095;SDS011;1558;42.700;23.360;2023-01-01T03:37:22;303.70;;;235.80;;
3095;SDS011;1558;42.700;23.360;2023-01-01T03:39:54;306.33;;;245.73;;
3095;SDS011;1558;42.700;23.360;2023-01-01T03:42:26;317.87;;;243.20;;
3095;SDS011;1558;42.700;23.360;2023-01-01T03:45:00;294.80;;;232.87;;
3095;SDS011;1558;42.700;23.360;2023-01-01T03:47:32;322.37;;;251.27;;
3095;SDS011;1558;42.700;23.360;2023-01-01T03:50:03;307.93;;;242.40;;
3095;SDS011;1558;42.700;23.360;2023-01-01T03:52:35;290.87;;;228.17;;
3095;SDS011;1558;42.700;23.360;2023-01-01T03:55:23;275.20;;;213.13;;
3095;SDS011;1558;42.700;23.360;2023-01-01T03:58:00;262.00;;;205.67;;
3095;SDS011;1558;42.700;23.360;2023-01-01T04:00:30;253.17;;;199.80;;
3095;SDS011;1558;42.700;23.360;2023-01-01T04:03:03;258.73;;;203.47;;
3095;SDS011;1558;42.700;23.360;2023-01-01T04:05:35;257.97;;;197.63;;
3095;SDS011;1558;42.700;23.360;2023-01-01T04:08:05;259.07;;;200.43;;
3095;SDS011;1558;42.700;23.360;2023-01-01T04:10:34;205.13;;;160.10;;
3095;SDS011;1558;42.700;23.360;2023-01-01T04:13:06;202.90;;;152.63;;
3095;SDS011;1558;42.700;23.360;2023-01-01T04:15:34;185.37;;;139.57;;
3095;SDS011;1558;42.700;23.360;2023-01-01T04:18:03;192.97;;;146.63;;
3095;SDS011;1558;42.700;23.360;2023-01-01T04:20:31;192.27;;;147.40;;
3095;SDS011;1558;42.700;23.360;2023-01-01T04:23:02;181.33;;;141.90;;
3095;SDS011;1558;42.700;23.360;2023-01-01T04:25:32;185.50;;;143.57;;
3095;SDS011;1558;42.700;23.360;2023-01-01T04:28:00;210.87;;;157.17;;
3095;SDS011;1558;42.700;23.360;2023-01-01T04:30:29;220.17;;;166.80;;
3095;SDS011;1558;42.700;23.360;2023-01-01T04:33:01;201.27;;;154.10;;
3095;SDS011;1558;42.700;23.360;2023-01-01T04:35:31;210.07;;;156.70;;
3095;SDS011;1558;42.700;23.360;2023-01-01T04:37:58;181.07;;;136.23;;
3095;SDS011;1558;42.700;23.360;2023-01-01T04:40:29;162.57;;;125.87;;
3095;SDS011;1558;42.700;23.360;2023-01-01T04:42:56;175.47;;;129.87;;
3095;SDS011;1558;42.700;23.360;2023-01-01T04:45:24;160.17;;;120.87;;
3095;SDS011;1558;42.700;23.360;2023-01-01T04:47:52;138.87;;;108.83;;
3095;SDS011;1558;42.700;23.360;2023-01-01T04:50:22;155.93;;;122.93;;
3095;SDS011;1558;42.700;23.360;2023-01-01T04:52:50;183.53;;;141.13;;
3095;SDS011;1558;42.700;23.360;2023-01-01T04:55:19;189.67;;;134.90;;
3095;SDS011;1558;42.700;23.360;2023-01-01T04:57:47;170.27;;;109.50;;
3095;SDS011;1558;42.700;23.360;2023-01-01T05:00:15;153.63;;;107.47;;
3095;SDS011;1558;42.700;23.360;2023-01-01T05:02:43;148.43;;;103.70;;
3095;SDS011;1558;42.700;23.360;2023-01-01T05:05:12;163.30;;;114.07;;
3095;SDS011;1558;42.700;23.360;2023-01-01T05:07:41;155.80;;;113.23;;
3095;SDS011;1558;42.700;23.360;2023-01-01T05:10:10;159.13;;;117.07;;
3095;SDS011;1558;42.700;23.360;2023-01-01T05:12:38;152.13;;;109.90;;
3095;SDS011;1558;42.700;23.360;2023-01-01T05:15:06;168.23;;;117.77;;
3095;SDS011;1558;42.700;23.360;2023-01-01T05:17:35;145.57;;;102.77;;
3095;SDS011;1558;42.700;23.360;2023-01-01T05:20:04;137.30;;;100.17;;
3095;SDS011;1558;42.700;23.360;2023-01-01T05:22:32;158.83;;;108.77;;
3095;SDS011;1558;42.700;23.360;2023-01-01T05:25:01;170.63;;;119.43;;
3095;SDS011;1558;42.700;23.360;2023-01-01T05:27:29;161.67;;;112.23;;
3095;SDS011;1558;42.700;23.360;2023-01-01T05:29:57;155.07;;;107.90;;
3095;SDS011;1558;42.700;23.360;2023-01-01T05:32:25;157.50;;;112.67;;
3095;SDS011;1558;42.700;23.360;2023-01-01T05:34:53;157.07;;;110.50;;
3095;SDS011;1558;42.700;23.360;2023-01-01T05:37:21;129.93;;;98.77;;
3095;SDS011;1558;42.700;23.360;2023-01-01T05:39:49;137.03;;;98.53;;
3095;SDS011;1558;42.700;23.360;2023-01-01T05:42:18;139.67;;;100.63;;
3095;SDS011;1558;42.700;23.360;2023-01-01T05:44:46;133.13;;;99.53;;
3095;SDS011;1558;42.700;23.360;2023-01-01T05:47:14;150.90;;;105.87;;
3095;SDS011;1558;42.700;23.360;2023-01-01T05:49:43;162.83;;;112.13;;
3095;SDS011;1558;42.700;23.360;2023-01-01T05:52:12;157.67;;;109.00;;
3095;SDS011;1558;42.700;23.360;2023-01-01T05:54:40;161.83;;;113.30;;
3095;SDS011;1558;42.700;23.360;2023-01-01T05:57:08;154.57;;;107.83;;
3095;SDS011;1558;42.700;23.360;2023-01-01T05:59:37;158.97;;;111.57;;
3095;SDS011;1558;42.700;23.360;2023-01-01T06:02:05;159.03;;;107.00;;
3095;SDS011;1558;42.700;23.360;2023-01-01T06:04:33;145.00;;;102.27;;
3095;SDS011;1558;42.700;23.360;2023-01-01T06:07:00;135.83;;;96.67;;
3095;SDS011;1558;42.700;23.360;2023-01-01T06:09:28;136.33;;;93.27;;
3095;SDS011;1558;42.700;23.360;2023-01-01T06:11:56;132.63;;;94.30;;
3095;SDS011;1558;42.700;23.360;2023-01-01T06:14:24;111.97;;;78.57;;
3095;SDS011;1558;42.700;23.360;2023-01-01T06:16:53;106.93;;;76.70;;
3095;SDS011;1558;42.700;23.360;2023-01-01T06:19:22;94.77;;;69.40;;
3095;SDS011;1558;42.700;23.360;2023-01-01T06:21:53;85.17;;;64.13;;
3095;SDS011;1558;42.700;23.360;2023-01-01T06:24:21;90.37;;;66.20;;
3095;SDS011;1558;42.700;23.360;2023-01-01T06:26:49;96.10;;;70.40;;
3095;SDS011;1558;42.700;23.360;2023-01-01T06:29:20;91.67;;;69.83;;
3095;SDS011;1558;42.700;23.360;2023-01-01T06:31:51;97.00;;;69.47;;
3095;SDS011;1558;42.700;23.360;2023-01-01T06:34:20;77.17;;;58.90;;
3095;SDS011;1558;42.700;23.360;2023-01-01T06:36:48;71.17;;;53.03;;
3095;SDS011;1558;42.700;23.360;2023-01-01T06:39:16;76.50;;;56.30;;
3095;SDS011;1558;42.700;23.360;2023-01-01T06:41:44;75.53;;;59.07;;
3095;SDS011;1558;42.700;23.360;2023-01-01T06:44:12;66.90;;;53.57;;
3095;SDS011;1558;42.700;23.360;2023-01-01T06:46:40;72.43;;;54.23;;
3095;SDS011;1558;42.700;23.360;2023-01-01T06:49:09;66.17;;;51.07;;
3095;SDS011;1558;42.700;23.360;2023-01-01T06:51:40;65.93;;;52.17;;
3095;SDS011;1558;42.700;23.360;2023-01-01T06:54:09;68.60;;;53.43;;
3095;SDS011;1558;42.700;23.360;2023-01-01T06:56:37;73.87;;;56.60;;
3095;SDS011;1558;42.700;23.360;2023-01-01T06:59:05;73.87;;;55.73;;
3095;SDS011;1558;42.700;23.360;2023-01-01T07:01:35;74.17;;;58.40;;
3095;SDS011;1558;42.700;23.360;2023-01-01T07:04:10;76.67;;;60.13;;
3095;SDS011;1558;42.700;23.360;2023-01-01T07:06:43;70.57;;;57.50;;
3095;SDS011;1558;42.700;23.360;2023-01-01T07:09:14;69.83;;;57.80;;
3095;SDS011;1558;42.700;23.360;2023-01-01T07:11:48;76.30;;;59.03;;
3095;SDS011;1558;42.700;23.360;2023-01-01T07:14:18;70.57;;;58.40;;
3095;SDS011;1558;42.700;23.360;2023-01-01T07:16:52;76.50;;;59.67;;
3095;SDS011;1558;42.700;23.360;2023-01-01T07:19:25;77.67;;;61.50;;
3095;SDS011;1558;42.700;23.360;2023-01-01T07:21:54;78.40;;;60.57;;
3095;SDS011;1558;42.700;23.360;2023-01-01T07:24:22;78.83;;;61.67;;
3095;SDS011;1558;42.700;23.360;2023-01-01T07:26:50;78.13;;;57.37;;
3095;SDS011;1558;42.700;23.360;2023-01-01T07:29:18;75.23;;;59.70;;
3095;SDS011;1558;42.700;23.360;2023-01-01T07:31:46;73.83;;;60.57;;
3095;SDS011;1558;42.700;23.360;2023-01-01T07:34:17;76.73;;;61.17;;
3095;SDS011;1558;42.700;23.360;2023-01-01T07:36:45;74.10;;;57.50;;
3095;SDS011;1558;42.700;23.360;2023-01-01T07:39:18;74.97;;;59.47;;
3095;SDS011;1558;42.700;23.360;2023-01-01T07:41:51;72.63;;;59.80;;
3095;SDS011;1558;42.700;23.360;2023-01-01T07:44:25;67.67;;;56.07;;
3095;SDS011;1558;42.700;23.360;2023-01-01T07:47:00;69.97;;;56.33;;
3095;SDS011;1558;42.700;23.360;2023-01-01T07:49:30;66.53;;;54.73;;
3095;SDS011;1558;42.700;23.360;2023-01-01T07:51:58;69.53;;;55.33;;
3095;SDS011;1558;42.700;23.360;2023-01-01T07:54:28;64.70;;;53.63;;
3095;SDS011;1558;42.700;23.360;2023-01-01T07:57:01;68.47;;;56.53;;
3095;SDS011;1558;42.700;23.360;2023-01-01T07:59:34;64.70;;;54.33;;
3095;SDS011;1558;42.700;23.360;2023-01-01T08:02:04;62.13;;;53.30;;
3095;SDS011;1558;42.700;23.360;2023-01-01T08:04:32;62.50;;;53.37;;
3095;SDS011;1558;42.700;23.360;2023-01-01T08:07:00;65.00;;;53.03;;
3095;SDS011;1558;42.700;23.360;2023-01-01T08:09:35;58.30;;;51.67;;
3095;SDS011;1558;42.700;23.360;2023-01-01T08:12:05;58.67;;;51.23;;
3095;SDS011;1558;42.700;23.360;2023-01-01T08:14:33;59.40;;;52.93;;
3095;SDS011;1558;42.700;23.360;2023-01-01T08:17:03;58.37;;;50.97;;
3095;SDS011;1558;42.700;23.360;2023-01-01T08:19:31;60.47;;;52.70;;
3095;SDS011;1558;42.700;23.360;2023-01-01T08:21:59;61.37;;;53.97;;
3095;SDS011;1558;42.700;23.360;2023-01-01T08:24:27;60.97;;;54.03;;
3095;SDS011;1558;42.700;23.360;2023-01-01T08:26:57;56.70;;;50.57;;
3095;SDS011;1558;42.700;23.360;2023-01-01T08:29:25;56.67;;;50.73;;
3095;SDS011;1558;42.700;23.360;2023-01-01T08:31:56;56.53;;;50.53;;
3095;SDS011;1558;42.700;23.360;2023-01-01T08:34:24;54.20;;;48.50;;
3095;SDS011;1558;42.700;23.360;2023-01-01T08:36:55;56.43;;;50.73;;
3095;SDS011;1558;42.700;23.360;2023-01-01T08:39:23;57.30;;;51.47;;
3095;SDS011;1558;42.700;23.360;2023-01-01T08:41:51;57.47;;;51.33;;
3095;SDS011;1558;42.700;23.360;2023-01-01T08:44:22;57.70;;;51.43;;
3095;SDS011;1558;42.700;23.360;2023-01-01T08:46:52;58.00;;;52.00;;
3095;SDS011;1558;42.700;23.360;2023-01-01T08:49:22;58.40;;;52.20;;
3095;SDS011;1558;42.700;23.360;2023-01-01T08:51:50;58.50;;;52.53;;
3095;SDS011;1558;42.700;23.360;2023-01-01T08:54:25;57.50;;;51.37;;
3095;SDS011;1558;42.700;23.360;2023-01-01T08:56:58;60.43;;;53.73;;
3095;SDS011;1558;42.700;23.360;2023-01-01T08:59:28;60.80;;;54.10;;
3095;SDS011;1558;42.700;23.360;2023-01-01T09:01:56;56.87;;;50.97;;
3095;SDS011;1558;42.700;23.360;2023-01-01T09:04:26;55.53;;;50.03;;
3095;SDS011;1558;42.700;23.360;2023-01-01T09:06:57;57.33;;;51.37;;
3095;SDS011;1558;42.700;23.360;2023-01-01T09:09:25;56.87;;;50.90;;
3095;SDS011;1558;42.700;23.360;2023-01-01T09:11:57;57.63;;;51.70;;
3095;SDS011;1558;42.700;23.360;2023-01-01T09:14:34;58.83;;;52.70;;
3095;SDS011;1558;42.700;23.360;2023-01-01T09:17:02;58.50;;;52.63;;
3095;SDS011;1558;42.700;23.360;2023-01-01T09:19:30;58.50;;;52.53;;
3095;SDS011;1558;42.700;23.360;2023-01-01T09:21:58;59.97;;;53.77;;
3095;SDS011;1558;42.700;23.360;2023-01-01T09:24:26;59.80;;;53.73;;
3095;SDS011;1558;42.700;23.360;2023-01-01T09:26:53;62.27;;;55.60;;
3095;SDS011;1558;42.700;23.360;2023-01-01T09:29:21;67.60;;;60.60;;
3095;SDS011;1558;42.700;23.360;2023-01-01T09:31:51;67.37;;;60.03;;
3095;SDS011;1558;42.700;23.360;2023-01-01T09:34:19;66.70;;;59.77;;
3095;SDS011;1558;42.700;23.360;2023-01-01T09:36:46;68.57;;;61.23;;
3095;SDS011;1558;42.700;23.360;2023-01-01T09:39:14;67.87;;;60.97;;
3095;SDS011;1558;42.700;23.360;2023-01-01T09:41:49;69.37;;;62.27;;
3095;SDS011;1558;42.700;23.360;2023-01-01T09:44:27;69.07;;;61.97;;
3095;SDS011;1558;42.700;23.360;2023-01-01T09:47:15;69.27;;;62.17;;
3095;SDS011;1558;42.700;23.360;2023-01-01T09:49:48;69.70;;;62.50;;
3095;SDS011;1558;42.700;23.360;2023-01-01T09:52:19;69.53;;;62.27;;
3095;SDS011;1558;42.700;23.360;2023-01-01T09:54:47;71.53;;;64.00;;
3095;SDS011;1558;42.700;23.360;2023-01-01T09:57:20;67.87;;;60.77;;
3095;SDS011;1558;42.700;23.360;2023-01-01T09:59:54;69.80;;;62.73;;
3095;SDS011;1558;42.700;23.360;2023-01-01T10:02:30;69.77;;;62.57;;
3095;SDS011;1558;42.700;23.360;2023-01-01T10:05:07;68.90;;;61.63;;
3095;SDS011;1558;42.700;23.360;2023-01-01T10:07:48;70.60;;;63.07;;
3095;SDS011;1558;42.700;23.360;2023-01-01T10:10:24;73.43;;;65.83;;
3095;SDS011;1558;42.700;23.360;2023-01-01T10:13:07;71.37;;;64.00;;
3095;SDS011;1558;42.700;23.360;2023-01-01T10:16:20;72.33;;;64.87;;
3095;SDS011;1558;42.700;23.360;2023-01-01T10:18:58;71.67;;;64.33;;
3095;SDS011;1558;42.700;23.360;2023-01-01T10:21:30;74.57;;;66.93;;
3095;SDS011;1558;42.700;23.360;2023-01-01T10:24:01;77.03;;;68.93;;
3095;SDS011;1558;42.700;23.360;2023-01-01T10:26:37;73.40;;;65.83;;
3095;SDS011;1558;42.700;23.360;2023-01-01T10:29:10;75.70;;;67.90;;
3095;SDS011;1558;42.700;23.360;2023-01-01T10:31:43;72.83;;;65.27;;
3095;SDS011;1558;42.700;23.360;2023-01-01T10:34:16;73.53;;;66.07;;
3095;SDS011;1558;42.700;23.360;2023-01-01T10:36:49;71.43;;;64.03;;
3095;SDS011;1558;42.700;23.360;2023-01-01T10:39:20;68.10;;;61.23;;
3095;SDS011;1558;42.700;23.360;2023-01-01T10:41:48;71.90;;;62.97;;
3095;SDS011;1558;42.700;23.360;2023-01-01T10:44:27;67.67;;;60.67;;
3095;SDS011;1558;42.700;23.360;2023-01-01T10:46:56;64.00;;;57.10;;
3095;SDS011;1558;42.700;23.360;2023-01-01T10:49:27;58.87;;;52.73;;
3095;SDS011;1558;42.700;23.360;2023-01-01T10:51:55;63.90;;;57.10;;
3095;SDS011;1558;42.700;23.360;2023-01-01T10:54:31;54.45;;;49.05;;
3095;SDS011;1558;42.700;23.360;2023-01-01T10:57:11;53.00;;;47.55;;
3095;SDS011;1558;42.700;23.360;2023-01-01T10:59:41;51.67;;;46.17;;
3095;SDS011;1558;42.700;23.360;2023-01-01T11:02:20;53.92;;;48.25;;
3095;SDS011;1558;42.700;23.360;2023-01-01T11:04:51;51.78;;;46.47;;
3095;SDS011;1558;42.700;23.360;2023-01-01T11:07:46;52.50;;;47.20;;
3095;SDS011;1558;42.700;23.360;2023-01-01T11:10:16;52.85;;;47.35;;
3095;SDS011;1558;42.700;23.360;2023-01-01T11:12:46;54.70;;;48.75;;
3095;SDS011;1558;42.700;23.360;2023-01-01T11:15:34;54.33;;;48.72;;
3095;SDS011;1558;42.700;23.360;2023-01-01T11:18:04;54.30;;;48.70;;
3095;SDS011;1558;42.700;23.360;2023-01-01T11:20:35;51.92;;;46.47;;
3095;SDS011;1558;42.700;23.360;2023-01-01T11:23:16;50.33;;;45.10;;
3095;SDS011;1558;42.700;23.360;2023-01-01T11:25:55;50.35;;;44.95;;
3095;SDS011;1558;42.700;23.360;2023-01-01T11:28:24;48.80;;;43.60;;
3095;SDS011;1558;42.700;23.360;2023-01-01T11:30:57;45.03;;;40.50;;
3095;SDS011;1558;42.700;23.360;2023-01-01T11:33:28;45.75;;;40.90;;
3095;SDS011;1558;42.700;23.360;2023-01-01T11:36:01;45.42;;;40.88;;
3095;SDS011;1558;42.700;23.360;2023-01-01T11:38:31;45.25;;;40.55;;
3095;SDS011;1558;42.700;23.360;2023-01-01T11:41:01;46.15;;;41.47;;
3095;SDS011;1558;42.700;23.360;2023-01-01T11:43:36;43.03;;;38.65;;
3095;SDS011;1558;42.700;23.360;2023-01-01T11:46:06;44.22;;;39.53;;
3095;SDS011;1558;42.700;23.360;2023-01-01T11:48:39;42.17;;;37.70;;
3095;SDS011;1558;42.700;23.360;2023-01-01T11:51:26;44.00;;;39.38;;
3095;SDS011;1558;42.700;23.360;2023-01-01T11:54:09;44.17;;;39.75;;
3095;SDS011;1558;42.700;23.360;2023-01-01T11:56:47;46.53;;;41.70;;
3095;SDS011;1558;42.700;23.360;2023-01-01T11:59:19;44.28;;;39.72;;
3095;SDS011;1558;42.700;23.360;2023-01-01T12:01:52;44.30;;;39.75;;
3095;SDS011;1558;42.700;23.360;2023-01-01T12:04:24;43.78;;;39.10;;
3095;SDS011;1558;42.700;23.360;2023-01-01T12:07:01;40.30;;;35.97;;
3095;SDS011;1558;42.700;23.360;2023-01-01T12:09:33;36.88;;;33.05;;
3095;SDS011;1558;42.700;23.360;2023-01-01T12:12:08;37.35;;;33.45;;
3095;SDS011;1558;42.700;23.360;2023-01-01T12:14:41;36.75;;;33.15;;
3095;SDS011;1558;42.700;23.360;2023-01-01T12:17:16;39.17;;;35.17;;
3095;SDS011;1558;42.700;23.360;2023-01-01T12:19:53;38.08;;;34.33;;
3095;SDS011;1558;42.700;23.360;2023-01-01T12:22:28;39.00;;;34.90;;
3095;SDS011;1558;42.700;23.360;2023-01-01T12:24:56;35.38;;;31.73;;
3095;SDS011;1558;42.700;23.360;2023-01-01T12:27:32;35.22;;;31.55;;
3095;SDS011;1558;42.700;23.360;2023-01-01T12:30:12;34.38;;;30.77;;
3095;SDS011;1558;42.700;23.360;2023-01-01T12:32:55;35.25;;;31.50;;
3095;SDS011;1558;42.700;23.360;2023-01-01T12:35:39;34.60;;;31.00;;
3095;SDS011;1558;42.700;23.360;2023-01-01T12:38:22;36.92;;;32.92;;
3095;SDS011;1558;42.700;23.360;2023-01-01T12:41:05;36.67;;;32.92;;
3095;SDS011;1558;42.700;23.360;2023-01-01T12:43:41;36.80;;;32.97;;
3095;SDS011;1558;42.700;23.360;2023-01-01T12:46:19;36.55;;;32.65;;
3095;SDS011;1558;42.700;23.360;2023-01-01T12:49:15;36.70;;;32.83;;
3095;SDS011;1558;42.700;23.360;2023-01-01T12:51:56;36.85;;;33.00;;
3095;SDS011;1558;42.700;23.360;2023-01-01T12:57:42;34.97;;;31.27;;
3095;SDS011;1558;42.700;23.360;2023-01-01T13:00:16;35.20;;;31.60;;
3095;SDS011;1558;42.700;23.360;2023-01-01T13:02:49;35.53;;;31.90;;
3095;SDS011;1558;42.700;23.360;2023-01-01T13:05:19;35.75;;;31.85;;
3095;SDS011;1558;42.700;23.360;2023-01-01T13:07:51;36.05;;;32.40;;
3095;SDS011;1558;42.700;23.360;2023-01-01T13:10:27;36.53;;;32.57;;
3095;SDS011;1558;42.700;23.360;2023-01-01T13:12:59;36.17;;;32.37;;
3095;SDS011;1558;42.700;23.360;2023-01-01T13:15:41;36.20;;;31.57;;
3095;SDS011;1558;42.700;23.360;2023-01-01T13:18:21;36.10;;;32.20;;
3095;SDS011;1558;42.700;23.360;2023-01-01T13:21:02;37.17;;;32.93;;
3095;SDS011;1558;42.700;23.360;2023-01-01T13:23:41;37.13;;;33.13;;
3095;SDS011;1558;42.700;23.360;2023-01-01T13:26:34;37.63;;;33.63;;
3095;SDS011;1558;42.700;23.360;2023-01-01T13:31:59;43.07;;;36.77;;
3095;SDS011;1558;42.700;23.360;2023-01-01T13:34:36;40.23;;;35.87;;
3095;SDS011;1558;42.700;23.360;2023-01-01T13:39:56;38.40;;;34.23;;
3095;SDS011;1558;42.700;23.360;2023-01-01T13:42:43;38.40;;;33.33;;
3095;SDS011;1558;42.700;23.360;2023-01-01T13:45:20;36.20;;;32.50;;
3095;SDS011;1558;42.700;23.360;2023-01-01T13:48:16;36.53;;;32.57;;
3095;SDS011;1558;42.700;23.360;2023-01-01T13:51:09;35.67;;;31.87;;
3095;SDS011;1558;42.700;23.360;2023-01-01T13:54:17;35.67;;;30.03;;
3095;SDS011;1558;42.700;23.360;2023-01-01T13:56:57;34.87;;;31.20;;
3095;SDS011;1558;42.700;23.360;2023-01-01T14:02:21;32.87;;;29.33;;
3095;SDS011;1558;42.700;23.360;2023-01-01T14:04:53;34.43;;;30.53;;
3095;SDS011;1558;42.700;23.360;2023-01-01T14:07:27;36.53;;;31.13;;
3095;SDS011;1558;42.700;23.360;2023-01-01T14:10:24;33.67;;;30.03;;
3095;SDS011;1558;42.700;23.360;2023-01-01T14:12:56;39.50;;;32.07;;
3095;SDS011;1558;42.700;23.360;2023-01-01T14:15:30;36.93;;;31.57;;
3095;SDS011;1558;42.700;23.360;2023-01-01T14:18:00;34.43;;;30.73;;
3095;SDS011;1558;42.700;23.360;2023-01-01T14:20:31;33.30;;;29.67;;
3095;SDS011;1558;42.700;23.360;2023-01-01T14:23:04;33.93;;;30.23;;
3095;SDS011;1558;42.700;23.360;2023-01-01T14:25:35;33.80;;;28.50;;
3095;SDS011;1558;42.700;23.360;2023-01-01T14:28:04;32.53;;;29.03;;
3095;SDS011;1558;42.700;23.360;2023-01-01T14:30:34;33.77;;;30.07;;
3095;SDS011;1558;42.700;23.360;2023-01-01T14:33:02;43.30;;;31.87;;
3095;SDS011;1558;42.700;23.360;2023-01-01T14:35:30;35.30;;;30.17;;
3095;SDS011;1558;42.700;23.360;2023-01-01T14:38:02;37.63;;;30.77;;
3095;SDS011;1558;42.700;23.360;2023-01-01T14:40:43;35.50;;;30.43;;
3095;SDS011;1558;42.700;23.360;2023-01-01T14:43:12;34.57;;;30.10;;
3095;SDS011;1558;42.700;23.360;2023-01-01T14:45:42;37.47;;;30.90;;
3095;SDS011;1558;42.700;23.360;2023-01-01T14:48:10;38.13;;;32.63;;
3095;SDS011;1558;42.700;23.360;2023-01-01T14:50:45;42.03;;;32.13;;
3095;SDS011;1558;42.700;23.360;2023-01-01T14:53:16;39.17;;;32.90;;
3095;SDS011;1558;42.700;23.360;2023-01-01T14:55:47;42.07;;;34.40;;
3095;SDS011;1558;42.700;23.360;2023-01-01T14:58:17;41.70;;;34.23;;
3095;SDS011;1558;42.700;23.360;2023-01-01T15:00:49;41.73;;;34.50;;
3095;SDS011;1558;42.700;23.360;2023-01-01T15:03:18;45.63;;;37.40;;
3095;SDS011;1558;42.700;23.360;2023-01-01T15:05:56;49.43;;;42.07;;